sensor_id;sensor_type;location;lat;lon;timestamp;pressure;altitude;pressure_sealevel;temperature;humidity
58955;BME280;45815;52.334;5.024;2022-11-02T00:01:18;101305.03;;;11.62;100.00
58955;BME280;45815;52.334;5.024;2022-11-02T00:03:46;101304.09;;;11.60;100.00
58955;BME280;45815;52.334;5.024;2022-11-02T00:06:11;101308.53;;;11.62;100.00
58955;BME280;45815;52.334;5.024;2022-11-02T00:08:36;101318.22;;;11.64;100.00
58955;BME280;45815;52.334;5.024;2022-11-02T00:11:02;101315.59;;;11.64;100.00
58955;BME280;45815;52.334;5.024;2022-11-02T00:13:27;101314.66;;;11.61;100.00
58955;BME280;45815;52.334;5.024;2022-11-02T00:15:53;101301.56;;;11.65;100.00
58955;BME280;45815;52.334;5.024;2022-11-02T00:18:18;101305.88;;;11.61;100.00
58955;BME280;45815;52.334;5.024;2022-11-02T00:20:44;101303.28;;;11.62;100.00
58955;BME280;45815;52.334;5.024;2022-11-02T00:23:10;101303.13;;;11.56;100.00
58955;BME280;45815;52.334;5.024;2022-11-02T00:25:42;101306.69;;;11.58;100.00
58955;BME280;45815;52.334;5.024;2022-11-02T00:28:09;101296.16;;;11.58;100.00
58955;BME280;45815;52.334;5.024;2022-11-02T00:30:36;101314.72;;;11.65;100.00
58955;BME280;45815;52.334;5.024;2022-11-02T00:33:01;101318.13;;;11.59;100.00
58955;BME280;45815;52.334;5.024;2022-11-02T00:35:27;101327.63;;;11.54;100.00
58955;BME280;45815;52.334;5.024;2022-11-02T00:37:52;101358.50;;;11.62;100.00
58955;BME280;45815;52.334;5.024;2022-11-02T00:40:18;101331.44;;;11.67;100.00
58955;BME280;45815;52.334;5.024;2022-11-02T00:42:43;101350.56;;;11.59;100.00
58955;BME280;45815;52.334;5.024;2022-11-02T00:45:10;101370.75;;;11.62;100.00
58955;BME280;45815;52.334;5.024;2022-11-02T00:47:36;101368.91;;;11.58;100.00
58955;BME280;45815;52.334;5.024;2022-11-02T00:50:01;101355.44;;;11.44;100.00
58955;BME280;45815;52.334;5.024;2022-11-02T00:52:28;101328.59;;;11.19;100.00
58955;BME280;45815;52.334;5.024;2022-11-02T00:54:53;101276.38;;;10.97;100.00
58955;BME280;45815;52.334;5.024;2022-11-02T00:57:18;101255.66;;;10.74;100.00
58955;BME280;45815;52.334;5.024;2022-11-02T00:59:44;101256.34;;;10.66;100.00
58955;BME280;45815;52.334;5.024;2022-11-02T01:02:09;101264.84;;;10.57;100.00
58955;BME280;45815;52.334;5.024;2022-11-02T01:04:35;101263.94;;;10.55;100.00
58955;BME280;45815;52.334;5.024;2022-11-02T01:07:02;101268.13;;;10.48;100.00
58955;BME280;45815;52.334;5.024;2022-11-02T01:09:28;101271.53;;;10.44;100.00
58955;BME280;45815;52.334;5.024;2022-11-02T01:11:53;101272.19;;;10.35;100.00
58955;BME280;45815;52.334;5.024;2022-11-02T01:14:19;101244.16;;;10.34;100.00
58955;BME280;45815;52.334;5.024;2022-11-02T01:16:45;101256.38;;;10.32;100.00
58955;BME280;45815;52.334;5.024;2022-11-02T01:19:10;101255.44;;;10.30;100.00
58955;BME280;45815;52.334;5.024;2022-11-02T01:21:36;101250.31;;;10.35;100.00
58955;BME280;45815;52.334;5.024;2022-11-02T01:24:01;101246.75;;;10.33;100.00
58955;BME280;45815;52.334;5.024;2022-11-02T01:26:29;101268.78;;;10.40;100.00
58955;BME280;45815;52.334;5.024;2022-11-02T01:28:55;101278.47;;;10.42;100.00
58955;BME280;45815;52.334;5.024;2022-11-02T01:31:20;101275.88;;;10.44;100.00
58955;BME280;45815;52.334;5.024;2022-11-02T01:33:46;101264.66;;;10.49;100.00
58955;BME280;45815;52.334;5.024;2022-11-02T01:36:13;101278.75;;;10.53;100.00
58955;BME280;45815;52.334;5.024;2022-11-02T01:38:39;101270.97;;;10.56;100.00
58955;BME280;45815;52.334;5.024;2022-11-02T01:41:05;101279.75;;;10.58;100.00
58955;BME280;45815;52.334;5.024;2022-11-02T01:43:32;101261.38;;;10.58;100.00
58955;BME280;45815;52.334;5.024;2022-11-02T01:46:04;101269.69;;;10.42;100.00
58955;BME280;45815;52.334;5.024;2022-11-02T01:48:38;101268.19;;;10.50;100.00
58955;BME280;45815;52.334;5.024;2022-11-02T01:51:12;101260.22;;;10.47;100.00
58955;BME280;45815;52.334;5.024;2022-11-02T01:53:43;101267.19;;;10.45;100.00
58955;BME280;45815;52.334;5.024;2022-11-02T01:56:10;101274.16;;;10.44;100.00
58955;BME280;45815;52.334;5.024;2022-11-02T01:58:39;101273.06;;;10.36;100.00
58955;BME280;45815;52.334;5.024;2022-11-02T02:01:06;101274.13;;;10.43;100.00
58955;BME280;45815;52.334;5.024;2022-11-02T02:03:32;101270.50;;;10.38;100.00
58955;BME280;45815;52.334;5.024;2022-11-02T02:06:04;101271.25;;;10.33;100.00
58955;BME280;45815;52.334;5.024;2022-11-02T02:08:31;101258.13;;;10.33;100.00
58955;BME280;45815;52.334;5.024;2022-11-02T02:10:57;101262.50;;;10.34;100.00
58955;BME280;45815;52.334;5.024;2022-11-02T02:13:26;101267.88;;;10.38;100.00
58955;BME280;45815;52.334;5.024;2022-11-02T02:16:03;101258.19;;;10.37;100.00
58955;BME280;45815;52.334;5.024;2022-11-02T02:18:43;101267.88;;;10.38;100.00
58955;BME280;45815;52.334;5.024;2022-11-02T02:24:23;101274.94;;;10.40;100.00
58955;BME280;45815;52.334;5.024;2022-11-02T02:29:44;101280.97;;;10.38;100.00
58955;BME280;45815;52.334;5.024;2022-11-02T02:32:19;101289.78;;;10.40;100.00
58955;BME280;45815;52.334;5.024;2022-11-02T02:34:52;101291.56;;;10.41;100.00
58955;BME280;45815;52.334;5.024;2022-11-02T02:37:34;101292.31;;;10.37;100.00
58955;BME280;45815;52.334;5.024;2022-11-02T02:40:24;101281.06;;;10.41;100.00
58955;BME280;45815;52.334;5.024;2022-11-02T02:42:56;101278.63;;;10.48;100.00
58955;BME280;45815;52.334;5.024;2022-11-02T02:45:37;101289.19;;;10.50;100.00
58955;BME280;45815;52.334;5.024;2022-11-02T02:48:11;101280.44;;;10.51;100.00
58955;BME280;45815;52.334;5.024;2022-11-02T02:50:48;101277.91;;;10.54;100.00
58955;BME280;45815;52.334;5.024;2022-11-02T02:53:19;101271.84;;;10.56;100.00
58955;BME280;45815;52.334;5.024;2022-11-02T02:55:48;101270.09;;;10.57;100.00
58955;BME280;45815;52.334;5.024;2022-11-02T02:58:19;101270.16;;;10.59;100.00
58955;BME280;45815;52.334;5.024;2022-11-02T03:00:45;101260.53;;;10.59;100.00
58955;BME280;45815;52.334;5.024;2022-11-02T03:03:17;101264.09;;;10.61;100.00
58955;BME280;45815;52.334;5.024;2022-11-02T03:08:21;101265.97;;;10.65;100.00
58955;BME280;45815;52.334;5.024;2022-11-02T03:10:50;101277.41;;;10.69;100.00
58955;BME280;45815;52.334;5.024;2022-11-02T03:13:33;101278.41;;;10.72;100.00
58955;BME280;45815;52.334;5.024;2022-11-02T03:19:47;101276.78;;;10.79;100.00
58955;BME280;45815;52.334;5.024;2022-11-02T03:22:11;101268.03;;;10.78;100.00
58955;BME280;45815;52.334;5.024;2022-11-02T03:27:35;101269.81;;;10.80;100.00
58955;BME280;45815;52.334;5.024;2022-11-02T03:30:08;101274.38;;;10.88;100.00
58955;BME280;45815;52.334;5.024;2022-11-02T03:32:56;101270.88;;;10.88;100.00
58955;BME280;45815;52.334;5.024;2022-11-02T03:35:34;101277.13;;;10.93;100.00
58955;BME280;45815;52.334;5.024;2022-11-02T03:38:12;101270.13;;;10.92;100.00
58955;BME280;45815;52.334;5.024;2022-11-02T03:40:47;101274.66;;;10.99;100.00
58955;BME280;45815;52.334;5.024;2022-11-02T03:43:16;101309.75;;;11.01;100.00
58955;BME280;45815;52.334;5.024;2022-11-02T03:45:46;101284.41;;;11.03;100.00
58955;BME280;45815;52.334;5.024;2022-11-02T03:48:15;101277.28;;;10.99;100.00
58955;BME280;45815;52.334;5.024;2022-11-02T03:50:45;101289.66;;;11.03;100.00
58955;BME280;45815;52.334;5.024;2022-11-02T03:53:19;101284.06;;;10.91;100.00
58955;BME280;45815;52.334;5.024;2022-11-02T03:55:51;101287.72;;;10.96;100.00
58955;BME280;45815;52.334;5.024;2022-11-02T03:58:18;101295.63;;;10.96;100.00
58955;BME280;45815;52.334;5.024;2022-11-02T04:00:50;101301.69;;;10.95;100.00
58955;BME280;45815;52.334;5.024;2022-11-02T04:03:18;101313.06;;;10.94;100.00
58955;BME280;45815;52.334;5.024;2022-11-02T04:05:46;101309.75;;;11.01;100.00
58955;BME280;45815;52.334;5.024;2022-11-02T04:08:27;101335.16;;;11.02;100.00
58955;BME280;45815;52.334;5.024;2022-11-02T04:11:00;101349.16;;;11.01;100.00
58955;BME280;45815;52.334;5.024;2022-11-02T04:13:45;101353.41;;;10.97;100.00
58955;BME280;45815;52.334;5.024;2022-11-02T04:16:34;101360.47;;;10.98;100.00
58955;BME280;45815;52.334;5.024;2022-11-02T04:19:03;101366.53;;;10.97;100.00
58955;BME280;45815;52.334;5.024;2022-11-02T04:21:49;101394.56;;;10.97;100.00
58955;BME280;45815;52.334;5.024;2022-11-02T04:24:36;101403.31;;;10.96;100.00
58955;BME280;45815;52.334;5.024;2022-11-02T04:27:22;101402.38;;;10.94;100.00
58955;BME280;45815;52.334;5.024;2022-11-02T04:29:49;101403.31;;;10.96;100.00
58955;BME280;45815;52.334;5.024;2022-11-02T04:32:15;101405.00;;;10.95;100.00
58955;BME280;45815;52.334;5.024;2022-11-02T04:35:02;101405.06;;;10.97;100.00
58955;BME280;45815;52.334;5.024;2022-11-02T04:37:28;101415.50;;;10.94;100.00
58955;BME280;45815;52.334;5.024;2022-11-02T04:40:12;101415.53;;;10.95;100.00
58955;BME280;45815;52.334;5.024;2022-11-02T04:42:38;101412.78;;;10.91;100.00
58955;BME280;45815;52.334;5.024;2022-11-02T04:45:03;101418.03;;;10.91;100.00
58955;BME280;45815;52.334;5.024;2022-11-02T04:47:29;101418.88;;;10.90;100.00
58955;BME280;45815;52.334;5.024;2022-11-02T04:49:54;101427.63;;;10.89;100.00
58955;BME280;45815;52.334;5.024;2022-11-02T04:52:20;101431.16;;;10.91;100.00
58955;BME280;45815;52.334;5.024;2022-11-02T04:54:49;101446.03;;;10.90;100.00
58955;BME280;45815;52.334;5.024;2022-11-02T04:57:15;101450.31;;;10.87;100.00
58955;BME280;45815;52.334;5.024;2022-11-02T04:59:42;101445.16;;;10.90;100.00
58955;BME280;45815;52.334;5.024;2022-11-02T05:02:07;101449.41;;;10.86;100.00
58955;BME280;45815;52.334;5.024;2022-11-02T05:04:33;101450.16;;;10.81;100.00
58955;BME280;45815;52.334;5.024;2022-11-02T05:07:01;101454.66;;;10.85;100.00
58955;BME280;45815;52.334;5.024;2022-11-02T05:09:32;101470.41;;;10.85;100.00
58955;BME280;45815;52.334;5.024;2022-11-02T05:11:58;101466.09;;;10.87;100.00
58955;BME280;45815;52.334;5.024;2022-11-02T05:14:26;101467.03;;;10.89;100.00
58955;BME280;45815;52.334;5.024;2022-11-02T05:16:51;101461.44;;;10.78;100.00
58955;BME280;45815;52.334;5.024;2022-11-02T05:19:17;101479.09;;;10.84;100.00
58955;BME280;45815;52.334;5.024;2022-11-02T05:21:45;101486.97;;;10.84;100.00
58955;BME280;45815;52.334;5.024;2022-11-02T05:24:11;101495.72;;;10.83;100.00
58955;BME280;45815;52.334;5.024;2022-11-02T05:26:37;101500.16;;;10.85;100.00
58955;BME280;45815;52.334;5.024;2022-11-02T05:29:03;101502.88;;;10.88;100.00
58955;BME280;45815;52.334;5.024;2022-11-02T05:31:28;101515.13;;;10.88;100.00
58955;BME280;45815;52.334;5.024;2022-11-02T05:33:54;101513.44;;;10.90;100.00
58955;BME280;45815;52.334;5.024;2022-11-02T05:36:20;101519.63;;;10.92;100.00
58955;BME280;45815;52.334;5.024;2022-11-02T05:38:55;101508.22;;;10.91;100.00
58955;BME280;45815;52.334;5.024;2022-11-02T05:41:21;101516.13;;;10.93;100.00
58955;BME280;45815;52.334;5.024;2022-11-02T05:43:48;101514.44;;;10.95;100.00
58955;BME280;45815;52.334;5.024;2022-11-02T05:46:15;101512.69;;;10.94;100.00
58955;BME280;45815;52.334;5.024;2022-11-02T05:48:41;101532.00;;;10.96;100.00
58955;BME280;45815;52.334;5.024;2022-11-02T05:51:06;101532.94;;;10.98;100.00
58955;BME280;45815;52.334;5.024;2022-11-02T05:53:33;101539.28;;;11.06;100.00
58955;BME280;45815;52.334;5.024;2022-11-02T05:56:04;101545.56;;;11.11;100.00
58955;BME280;45815;52.334;5.024;2022-11-02T05:58:30;101548.28;;;11.14;100.00
58955;BME280;45815;52.334;5.024;2022-11-02T06:01:04;101553.56;;;11.14;100.00
58955;BME280;45815;52.334;5.024;2022-11-02T06:03:31;101563.19;;;11.15;100.00
58955;BME280;45815;52.334;5.024;2022-11-02T06:05:57;101564.06;;;11.16;100.00
58955;BME280;45815;52.334;5.024;2022-11-02T06:08:23;101574.59;;;11.16;100.00
58955;BME280;45815;52.334;5.024;2022-11-02T06:10:48;101571.00;;;11.12;100.00
58955;BME280;45815;52.334;5.024;2022-11-02T06:13:14;101570.06;;;11.10;100.00
58955;BME280;45815;52.334;5.024;2022-11-02T06:15:39;101577.09;;;11.11;100.00
58955;BME280;45815;52.334;5.024;2022-11-02T06:18:07;101580.47;;;11.07;100.00
58955;BME280;45815;52.334;5.024;2022-11-02T06:20:33;101583.19;;;11.10;100.00
58955;BME280;45815;52.334;5.024;2022-11-02T06:22:58;101581.41;;;11.09;100.00
58955;BME280;45815;52.334;5.024;2022-11-02T06:25:24;101587.50;;;11.08;100.00
58955;BME280;45815;52.334;5.024;2022-11-02T06:27:52;101591.03;;;11.09;100.00
58955;BME280;45815;52.334;5.024;2022-11-02T06:30:18;101597.66;;;10.96;100.00
58955;BME280;45815;52.334;5.024;2022-11-02T06:32:48;101605.84;;;11.07;100.00
58955;BME280;45815;52.334;5.024;2022-11-02T06:35:15;101619.03;;;11.08;100.00
58955;BME280;45815;52.334;5.024;2022-11-02T06:37:42;101612.91;;;11.08;100.00
58955;BME280;45815;52.334;5.024;2022-11-02T06:40:08;101627.88;;;11.10;100.00
58955;BME280;45815;52.334;5.024;2022-11-02T06:42:33;101625.25;;;11.12;100.00
58955;BME280;45815;52.334;5.024;2022-11-02T06:44:58;101636.72;;;11.14;100.00
58955;BME280;45815;52.334;5.024;2022-11-02T06:47:36;101640.13;;;11.11;100.00
58955;BME280;45815;52.334;5.024;2022-11-02T06:50:03;101631.44;;;11.12;100.00
58955;BME280;45815;52.334;5.024;2022-11-02T06:52:29;101635.88;;;11.15;100.00
58955;BME280;45815;52.334;5.024;2022-11-02T06:54:55;101644.84;;;11.22;100.00
58955;BME280;45815;52.334;5.024;2022-11-02T06:57:20;101658.88;;;11.24;100.00
58955;BME280;45815;52.334;5.024;2022-11-02T06:59:46;101670.25;;;11.23;100.00
58955;BME280;45815;52.334;5.024;2022-11-02T07:02:12;101681.63;;;11.22;100.00
58955;BME280;45815;52.334;5.024;2022-11-02T07:04:37;101683.41;;;11.23;100.00
58955;BME280;45815;52.334;5.024;2022-11-02T07:07:03;101684.34;;;11.25;100.00
58955;BME280;45815;52.334;5.024;2022-11-02T07:09:28;101692.88;;;11.17;100.00
58955;BME280;45815;52.334;5.024;2022-11-02T07:11:53;101705.28;;;11.22;100.00
58955;BME280;45815;52.334;5.024;2022-11-02T07:14:19;101718.44;;;11.23;100.00
58955;BME280;45815;52.334;5.024;2022-11-02T07:16:44;101717.75;;;11.29;100.00
58955;BME280;45815;52.334;5.024;2022-11-02T07:19:09;101716.06;;;11.31;100.00
58955;BME280;45815;52.334;5.024;2022-11-02T07:21:35;101716.97;;;11.31;100.00
58955;BME280;45815;52.334;5.024;2022-11-02T07:24:00;101728.28;;;11.29;100.00
58955;BME280;45815;52.334;5.024;2022-11-02T07:26:26;101736.31;;;11.35;100.00
58955;BME280;45815;52.334;5.024;2022-11-02T07:28:51;101739.06;;;11.38;100.00
58955;BME280;45815;52.334;5.024;2022-11-02T07:31:17;101742.66;;;11.41;100.00
58955;BME280;45815;52.334;5.024;2022-11-02T07:33:42;101745.34;;;11.43;100.00
58955;BME280;45815;52.334;5.024;2022-11-02T07:36:08;101748.84;;;11.44;100.00
58955;BME280;45815;52.334;5.024;2022-11-02T07:38:34;101757.75;;;11.47;100.00
58955;BME280;45815;52.334;5.024;2022-11-02T07:40:59;101755.06;;;11.46;100.00
58955;BME280;45815;52.334;5.024;2022-11-02T07:43:25;101756.88;;;11.48;100.00
58955;BME280;45815;52.334;5.024;2022-11-02T07:45:55;101757.63;;;11.44;100.00
58955;BME280;45815;52.334;5.024;2022-11-02T07:48:21;101775.28;;;11.48;100.00
58955;BME280;45815;52.334;5.024;2022-11-02T07:50:46;101774.44;;;11.49;100.00
58955;BME280;45815;52.334;5.024;2022-11-02T07:53:11;101771.84;;;11.51;100.00
58955;BME280;45815;52.334;5.024;2022-11-02T07:55:37;101772.88;;;11.56;100.00
58955;BME280;45815;52.334;5.024;2022-11-02T07:58:04;101777.44;;;11.61;100.00
58955;BME280;45815;52.334;5.024;2022-11-02T08:00:34;101775.66;;;11.60;100.00
58955;BME280;45815;52.334;5.024;2022-11-02T08:03:01;101777.25;;;11.55;100.00
58955;BME280;45815;52.334;5.024;2022-11-02T08:05:27;101789.75;;;11.62;100.00
58955;BME280;45815;52.334;5.024;2022-11-02T08:08:00;101794.03;;;11.59;100.00
58955;BME280;45815;52.334;5.024;2022-11-02T08:10:28;101788.78;;;11.60;100.00
58955;BME280;45815;52.334;5.024;2022-11-02T08:12:54;101799.59;;;11.70;100.00
58955;BME280;45815;52.334;5.024;2022-11-02T08:15:20;101801.41;;;11.71;100.00
58955;BME280;45815;52.334;5.024;2022-11-02T08:17:45;101796.28;;;11.75;100.00
58955;BME280;45815;52.334;5.024;2022-11-02T08:20:11;101805.88;;;11.75;100.00
58955;BME280;45815;52.334;5.024;2022-11-02T08:22:38;101806.94;;;11.80;100.00
58955;BME280;45815;52.334;5.024;2022-11-02T08:25:04;101806.19;;;11.86;100.00
58955;BME280;45815;52.334;5.024;2022-11-02T08:27:30;101809.72;;;11.86;100.00
58955;BME280;45815;52.334;5.024;2022-11-02T08:29:56;101809.88;;;11.91;100.00
58955;BME280;45815;52.334;5.024;2022-11-02T08:32:21;101816.03;;;11.91;100.00
58955;BME280;45815;52.334;5.024;2022-11-02T08:34:46;101816.22;;;11.97;100.00
58955;BME280;45815;52.334;5.024;2022-11-02T08:37:12;101816.31;;;12.00;100.00
58955;BME280;45815;52.334;5.024;2022-11-02T08:39:37;101819.13;;;12.07;100.00
58955;BME280;45815;52.334;5.024;2022-11-02T08:42:02;101813.09;;;12.11;100.00
58955;BME280;45815;52.334;5.024;2022-11-02T08:44:28;101817.59;;;12.15;100.00
58955;BME280;45815;52.334;5.024;2022-11-02T08:46:54;101819.34;;;12.14;100.00
58955;BME280;45815;52.334;5.024;2022-11-02T08:49:19;101823.91;;;12.20;100.00
58955;BME280;45815;52.334;5.024;2022-11-02T08:51:45;101821.41;;;12.24;100.00
58955;BME280;45815;52.334;5.024;2022-11-02T08:54:11;101828.50;;;12.29;100.00
58955;BME280;45815;52.334;5.024;2022-11-02T08:56:36;101827.81;;;12.34;100.00
58955;BME280;45815;52.334;5.024;2022-11-02T08:59:02;101836.66;;;12.38;100.00
58955;BME280;45815;52.334;5.024;2022-11-02T09:01:27;101838.47;;;12.40;100.00
58955;BME280;45815;52.334;5.024;2022-11-02T09:03:52;101846.63;;;12.48;100.00
58955;BME280;45815;52.334;5.024;2022-11-02T09:06:18;101837.09;;;12.53;100.00
58955;BME280;45815;52.334;5.024;2022-11-02T09:08:43;101843.41;;;12.60;100.00
58955;BME280;45815;52.334;5.024;2022-11-02T09:11:09;101845.38;;;12.67;100.00
58955;BME280;45815;52.334;5.024;2022-11-02T09:13:34;101846.38;;;12.72;100.00
58955;BME280;45815;52.334;5.024;2022-11-02T09:15:59;101858.78;;;12.76;100.00
58955;BME280;45815;52.334;5.024;2022-11-02T09:18:25;101857.91;;;12.77;100.00
58955;BME280;45815;52.334;5.024;2022-11-02T09:20:51;101860.78;;;12.86;100.00
58955;BME280;45815;52.334;5.024;2022-11-02T09:23:17;101861.84;;;12.93;100.00
58955;BME280;45815;52.334;5.024;2022-11-02T09:25:43;101865.41;;;12.95;100.00
58955;BME280;45815;52.334;5.024;2022-11-02T09:28:09;101868.06;;;12.97;100.00
58955;BME280;45815;52.334;5.024;2022-11-02T09:30:34;101872.38;;;12.93;100.00
58955;BME280;45815;52.334;5.024;2022-11-02T09:33:02;101885.63;;;12.95;100.00
58955;BME280;45815;52.334;5.024;2022-11-02T09:35:30;101883.13;;;13.01;100.00
58955;BME280;45815;52.334;5.024;2022-11-02T09:37:56;101887.56;;;13.03;100.00
58955;BME280;45815;52.334;5.024;2022-11-02T09:40:25;101881.47;;;13.04;100.00
58955;BME280;45815;52.334;5.024;2022-11-02T09:46:02;101898.22;;;13.08;100.00
58955;BME280;45815;52.334;5.024;2022-11-02T09:48:32;101891.50;;;13.19;100.00
58955;BME280;45815;52.334;5.024;2022-11-02T09:51:15;101889.03;;;13.27;100.00
58955;BME280;45815;52.334;5.024;2022-11-02T09:56:35;101889.31;;;13.36;100.00
58955;BME280;45815;52.334;5.024;2022-11-02T09:59:04;101900.91;;;13.43;100.00
58955;BME280;45815;52.334;5.024;2022-11-02T10:01:36;101902.78;;;13.48;100.00
58955;BME280;45815;52.334;5.024;2022-11-02T10:07:33;101904.69;;;13.54;100.00
58955;BME280;45815;52.334;5.024;2022-11-02T10:10:10;101908.16;;;13.51;100.00
58955;BME280;45815;52.334;5.024;2022-11-02T10:13:01;101902.13;;;13.57;100.00
58955;BME280;45815;52.334;5.024;2022-11-02T10:15:38;101897.63;;;13.53;100.00
58955;BME280;45815;52.334;5.024;2022-11-02T10:18:11;101903.94;;;13.60;100.00
58955;BME280;45815;52.334;5.024;2022-11-02T10:20:41;101911.19;;;13.68;100.00
58955;BME280;45815;52.334;5.024;2022-11-02T10:23:16;101913.88;;;13.70;100.00
58955;BME280;45815;52.334;5.024;2022-11-02T10:25:44;101913.97;;;13.75;100.00
58955;BME280;45815;52.334;5.024;2022-11-02T10:28:18;101907.09;;;13.83;100.00
58955;BME280;45815;52.334;5.024;2022-11-02T10:30:45;101909.91;;;13.90;100.00
58955;BME280;45815;52.334;5.024;2022-11-02T10:33:15;101912.50;;;13.87;100.00
58955;BME280;45815;52.334;5.024;2022-11-02T10:36:03;101912.59;;;13.92;100.00
58955;BME280;45815;52.334;5.024;2022-11-02T10:38:54;101915.38;;;13.98;100.00
58955;BME280;45815;52.334;5.024;2022-11-02T10:44:22;101923.56;;;14.10;100.00
58955;BME280;45815;52.334;5.024;2022-11-02T10:47:16;101920.16;;;14.16;100.00
58955;BME280;45815;52.334;5.024;2022-11-02T10:49:48;101924.66;;;14.20;100.00
58955;BME280;45815;52.334;5.024;2022-11-02T10:52:18;101933.06;;;14.43;100.00
58955;BME280;45815;52.334;5.024;2022-11-02T10:54:43;101925.41;;;14.54;100.00
58955;BME280;45815;52.334;5.024;2022-11-02T10:57:13;101943.06;;;14.56;100.00
58955;BME280;45815;52.334;5.024;2022-11-02T10:59:42;101936.13;;;14.63;100.00
58955;BME280;45815;52.334;5.024;2022-11-02T11:02:12;101924.00;;;14.73;100.00
58955;BME280;45815;52.334;5.024;2022-11-02T11:04:39;101934.72;;;14.81;100.00
58955;BME280;45815;52.334;5.024;2022-11-02T11:07:12;101946.09;;;14.76;100.00
58955;BME280;45815;52.334;5.024;2022-11-02T11:09:53;101933.66;;;14.72;100.00
58955;BME280;45815;52.334;5.024;2022-11-02T11:12:24;101934.59;;;14.73;100.00
58955;BME280;45815;52.334;5.024;2022-11-02T11:15:00;101928.16;;;14.59;100.00
58955;BME280;45815;52.334;5.024;2022-11-02T11:17:30;101943.13;;;14.60;100.00
58955;BME280;45815;52.334;5.024;2022-11-02T11:19:57;101943.81;;;14.52;100.00
58955;BME280;45815;52.334;5.024;2022-11-02T11:22:29;101939.13;;;14.39;100.00
58955;BME280;45815;52.334;5.024;2022-11-02T11:27:55;101949.94;;;14.50;100.00
58955;BME280;45815;52.334;5.024;2022-11-02T11:32:58;101936.16;;;15.12;100.00
58955;BME280;45815;52.334;5.024;2022-11-02T11:35:28;101935.13;;;15.54;100.00
58955;BME280;45815;52.334;5.024;2022-11-02T11:38:01;101937.63;;;16.01;100.00
58955;BME280;45815;52.334;5.024;2022-11-02T11:40:29;101930.97;;;16.31;100.00
58955;BME280;45815;52.334;5.024;2022-11-02T11:42:56;101926.59;;;16.33;100.00
58955;BME280;45815;52.334;5.024;2022-11-02T11:45:24;101936.41;;;16.40;100.00
58955;BME280;45815;52.334;5.024;2022-11-02T11:50:46;101939.38;;;15.97;100.00
58955;BME280;45815;52.334;5.024;2022-11-02T11:55:54;101941.44;;;16.21;100.00
58955;BME280;45815;52.334;5.024;2022-11-02T11:58:28;101946.56;;;16.78;100.00
58955;BME280;45815;52.334;5.024;2022-11-02T12:01:01;101937.28;;;17.20;100.00
58955;BME280;45815;52.334;5.024;2022-11-02T12:03:27;101925.31;;;17.71;100.00
58955;BME280;45815;52.334;5.024;2022-11-02T12:06:06;101933.56;;;18.09;100.00
58955;BME280;45815;52.334;5.024;2022-11-02T12:13:54;101930.16;;;18.44;100.00
58955;BME280;45815;52.334;5.024;2022-11-02T12:19:51;101915.75;;;17.91;100.00
58955;BME280;45815;52.334;5.024;2022-11-02T12:30:41;101905.97;;;17.84;100.00
58955;BME280;45815;52.334;5.024;2022-11-02T12:46:46;101904.63;;;19.03;100.00
58955;BME280;45815;52.334;5.024;2022-11-02T12:49:36;101920.63;;;18.97;100.00
58955;BME280;45815;52.334;5.024;2022-11-02T12:54:49;101909.78;;;18.35;100.00
58955;BME280;45815;52.334;5.024;2022-11-02T12:57:19;101907.03;;;18.12;100.00
58955;BME280;45815;52.334;5.024;2022-11-02T12:59:52;101909.72;;;18.28;100.00
58955;BME280;45815;52.334;5.024;2022-11-02T13:02:27;101911.47;;;18.18;100.00
58955;BME280;45815;52.334;5.024;2022-11-02T13:04:59;101892.97;;;18.49;100.00
58955;BME280;45815;52.334;5.024;2022-11-02T13:07:30;101890.41;;;18.73;100.00
58955;BME280;45815;52.334;5.024;2022-11-02T13:10:03;101891.34;;;18.92;100.00
58955;BME280;45815;52.334;5.024;2022-11-02T13:12:31;101886.91;;;18.96;100.00
58955;BME280;45815;52.334;5.024;2022-11-02T13:14:58;101883.31;;;18.75;100.00
58955;BME280;45815;52.334;5.024;2022-11-02T13:17:32;101877.88;;;18.42;100.00
58955;BME280;45815;52.334;5.024;2022-11-02T13:22:56;101863.28;;;17.57;100.00
58955;BME280;45815;52.334;5.024;2022-11-02T13:25:30;101865.84;;;17.44;100.00
58955;BME280;45815;52.334;5.024;2022-11-02T13:28:01;101865.66;;;17.17;100.00
58955;BME280;45815;52.334;5.024;2022-11-02T13:30:30;101864.50;;;16.90;100.00
58955;BME280;45815;52.334;5.024;2022-11-02T13:32:58;101873.16;;;16.74;100.00
58955;BME280;45815;52.334;5.024;2022-11-02T13:35:34;101870.28;;;16.52;100.00
58955;BME280;45815;52.334;5.024;2022-11-02T13:40:42;101858.66;;;16.41;100.00
58955;BME280;45815;52.334;5.024;2022-11-02T13:43:41;101861.88;;;16.12;100.00
58955;BME280;45815;52.334;5.024;2022-11-02T13:46:18;101859.25;;;15.53;100.00
58955;BME280;45815;52.334;5.024;2022-11-02T13:51:46;101866.75;;;15.81;100.00
58955;BME280;45815;52.334;5.024;2022-11-02T13:54:17;101868.94;;;15.51;100.00
58955;BME280;45815;52.334;5.024;2022-11-02T13:56:46;101862.56;;;15.39;100.00
58955;BME280;45815;52.334;5.024;2022-11-02T13:59:21;101865.69;;;15.14;100.00
58955;BME280;45815;52.334;5.024;2022-11-02T14:01:47;101868.59;;;14.79;100.00
58955;BME280;45815;52.334;5.024;2022-11-02T14:04:15;101854.88;;;14.98;100.00
58955;BME280;45815;52.334;5.024;2022-11-02T14:06:59;101854.88;;;14.98;100.00
58955;BME280;45815;52.334;5.024;2022-11-02T14:09:29;101841.63;;;14.97;100.00
58955;BME280;45815;52.334;5.024;2022-11-02T14:14:34;101851.09;;;14.86;100.00